sensor_id;sensor_type;location;lat;lon;timestamp;P1;durP1;ratioP1;P2;durP2;ratioP2
24008;SDS011;12217;50.792;4.372;2024-03-02T00:02:12;2.00;;;1.25;;
24008;SDS011;12217;50.792;4.372;2024-03-02T00:04:39;2.63;;;1.20;;
24008;SDS011;12217;50.792;4.372;2024-03-02T00:07:04;0.93;;;0.93;;
24008;SDS011;12217;50.792;4.372;2024-03-02T00:09:31;1.20;;;1.10;;
24008;SDS011;12217;50.792;4.372;2024-03-02T00:12:00;1.55;;;1.17;;
24008;SDS011;12217;50.792;4.372;2024-03-02T00:14:28;1.40;;;0.90;;
24008;SDS011;12217;50.792;4.372;2024-03-02T00:16:55;1.25;;;0.80;;
24008;SDS011;12217;50.792;4.372;2024-03-02T00:19:21;0.90;;;0.90;;
24008;SDS011;12217;50.792;4.372;2024-03-02T00:21:47;1.10;;;0.90;;
24008;SDS011;12217;50.792;4.372;2024-03-02T00:24:27;1.05;;;0.90;;
24008;SDS011;12217;50.792;4.372;2024-03-02T00:26:58;1.52;;;0.90;;
24008;SDS011;12217;50.792;4.372;2024-03-02T00:29:24;2.17;;;1.08;;
24008;SDS011;12217;50.792;4.372;2024-03-02T00:31:50;1.55;;;0.90;;
24008;SDS011;12217;50.792;4.372;2024-03-02T00:34:15;2.15;;;0.90;;
24008;SDS011;12217;50.792;4.372;2024-03-02T00:36:42;1.02;;;0.90;;
24008;SDS011;12217;50.792;4.372;2024-03-02T00:39:08;1.13;;;0.80;;
24008;SDS011;12217;50.792;4.372;2024-03-02T00:41:38;0.80;;;0.80;;
24008;SDS011;12217;50.792;4.372;2024-03-02T00:44:07;2.25;;;0.90;;
24008;SDS011;12217;50.792;4.372;2024-03-02T00:46:37;0.80;;;0.80;;
24008;SDS011;12217;50.792;4.372;2024-03-02T00:49:23;1.33;;;0.80;;
24008;SDS011;12217;50.792;4.372;2024-03-02T00:54:19;1.48;;;0.80;;
24008;SDS011;12217;50.792;4.372;2024-03-02T00:56:50;2.17;;;0.90;;
24008;SDS011;12217;50.792;4.372;2024-03-02T00:59:16;0.80;;;0.80;;
24008;SDS011;12217;50.792;4.372;2024-03-02T01:01:42;0.70;;;0.70;;
24008;SDS011;12217;50.792;4.372;2024-03-02T01:04:08;0.77;;;0.70;;
24008;SDS011;12217;50.792;4.372;2024-03-02T01:06:37;1.35;;;0.80;;
24008;SDS011;12217;50.792;4.372;2024-03-02T01:09:02;1.17;;;0.80;;
24008;SDS011;12217;50.792;4.372;2024-03-02T01:11:29;0.75;;;0.70;;
24008;SDS011;12217;50.792;4.372;2024-03-02T01:13:55;0.95;;;0.70;;
24008;SDS011;12217;50.792;4.372;2024-03-02T01:16:20;0.98;;;0.70;;
24008;SDS011;12217;50.792;4.372;2024-03-02T01:18:46;1.00;;;0.82;;
24008;SDS011;12217;50.792;4.372;2024-03-02T01:21:12;0.73;;;0.70;;
24008;SDS011;12217;50.792;4.372;2024-03-02T01:23:37;2.42;;;0.80;;
24008;SDS011;12217;50.792;4.372;2024-03-02T01:26:03;1.05;;;0.73;;
24008;SDS011;12217;50.792;4.372;2024-03-02T01:28:29;1.80;;;0.80;;
24008;SDS011;12217;50.792;4.372;2024-03-02T01:30:54;0.75;;;0.70;;
24008;SDS011;12217;50.792;4.372;2024-03-02T01:33:20;1.27;;;0.88;;
24008;SDS011;12217;50.792;4.372;2024-03-02T01:35:46;2.88;;;0.95;;
24008;SDS011;12217;50.792;4.372;2024-03-02T01:38:12;1.73;;;1.00;;
24008;SDS011;12217;50.792;4.372;2024-03-02T01:40:38;1.08;;;0.90;;
24008;SDS011;12217;50.792;4.372;2024-03-02T01:43:04;0.80;;;0.80;;
24008;SDS011;12217;50.792;4.372;2024-03-02T01:45:31;3.08;;;0.90;;
24008;SDS011;12217;50.792;4.372;2024-03-02T01:47:57;1.92;;;0.95;;
24008;SDS011;12217;50.792;4.372;2024-03-02T01:52:53;2.75;;;0.80;;
24008;SDS011;12217;50.792;4.372;2024-03-02T01:55:20;1.13;;;1.00;;
24008;SDS011;12217;50.792;4.372;2024-03-02T01:57:46;2.30;;;0.95;;
24008;SDS011;12217;50.792;4.372;2024-03-02T02:00:13;1.23;;;0.80;;
24008;SDS011;12217;50.792;4.372;2024-03-02T02:02:39;3.58;;;0.90;;
24008;SDS011;12217;50.792;4.372;2024-03-02T02:05:04;1.75;;;0.80;;
24008;SDS011;12217;50.792;4.372;2024-03-02T02:07:30;3.00;;;0.90;;
24008;SDS011;12217;50.792;4.372;2024-03-02T02:09:56;2.80;;;1.15;;
24008;SDS011;12217;50.792;4.372;2024-03-02T02:12:22;3.17;;;0.90;;
24008;SDS011;12217;50.792;4.372;2024-03-02T02:14:48;1.45;;;0.98;;
24008;SDS011;12217;50.792;4.372;2024-03-02T02:17:17;1.77;;;0.93;;
24008;SDS011;12217;50.792;4.372;2024-03-02T02:19:43;2.72;;;0.93;;
24008;SDS011;12217;50.792;4.372;2024-03-02T02:22:09;2.38;;;0.98;;
24008;SDS011;12217;50.792;4.372;2024-03-02T02:24:35;4.57;;;0.95;;
24008;SDS011;12217;50.792;4.372;2024-03-02T02:27:04;3.25;;;1.00;;
24008;SDS011;12217;50.792;4.372;2024-03-02T02:29:30;2.10;;;1.00;;
24008;SDS011;12217;50.792;4.372;2024-03-02T02:31:55;3.03;;;1.00;;
24008;SDS011;12217;50.792;4.372;2024-03-02T02:34:21;2.38;;;1.00;;
24008;SDS011;12217;50.792;4.372;2024-03-02T02:36:46;1.50;;;1.08;;
24008;SDS011;12217;50.792;4.372;2024-03-02T02:39:13;2.17;;;1.00;;
24008;SDS011;12217;50.792;4.372;2024-03-02T02:41:42;1.17;;;1.00;;
24008;SDS011;12217;50.792;4.372;2024-03-02T02:44:08;2.72;;;1.10;;
24008;SDS011;12217;50.792;4.372;2024-03-02T02:46:36;2.78;;;1.05;;
24008;SDS011;12217;50.792;4.372;2024-03-02T02:49:03;2.70;;;1.00;;
24008;SDS011;12217;50.792;4.372;2024-03-02T02:51:28;2.65;;;1.10;;
24008;SDS011;12217;50.792;4.372;2024-03-02T02:53:54;2.20;;;1.00;;
24008;SDS011;12217;50.792;4.372;2024-03-02T02:56:19;2.65;;;1.10;;
24008;SDS011;12217;50.792;4.372;2024-03-02T02:58:45;2.40;;;0.90;;
24008;SDS011;12217;50.792;4.372;2024-03-02T03:01:11;2.88;;;1.05;;
24008;SDS011;12217;50.792;4.372;2024-03-02T03:03:37;3.05;;;1.13;;
24008;SDS011;12217;50.792;4.372;2024-03-02T03:06:02;1.42;;;1.00;;
24008;SDS011;12217;50.792;4.372;2024-03-02T03:08:28;3.33;;;1.30;;
24008;SDS011;12217;50.792;4.372;2024-03-02T03:10:54;3.38;;;1.23;;
24008;SDS011;12217;50.792;4.372;2024-03-02T03:13:19;4.18;;;1.85;;
24008;SDS011;12217;50.792;4.372;2024-03-02T03:15:45;2.20;;;0.90;;
24008;SDS011;12217;50.792;4.372;2024-03-02T03:18:10;2.88;;;1.30;;
24008;SDS011;12217;50.792;4.372;2024-03-02T03:20:36;2.05;;;1.38;;
24008;SDS011;12217;50.792;4.372;2024-03-02T03:23:02;3.55;;;1.23;;
24008;SDS011;12217;50.792;4.372;2024-03-02T03:25:29;2.63;;;1.00;;
24008;SDS011;12217;50.792;4.372;2024-03-02T03:27:55;2.15;;;1.00;;
24008;SDS011;12217;50.792;4.372;2024-03-02T03:30:20;3.90;;;1.40;;
24008;SDS011;12217;50.792;4.372;2024-03-02T03:32:46;2.50;;;1.30;;
24008;SDS011;12217;50.792;4.372;2024-03-02T03:35:13;2.53;;;1.00;;
24008;SDS011;12217;50.792;4.372;2024-03-02T03:37:40;2.72;;;1.30;;
24008;SDS011;12217;50.792;4.372;2024-03-02T03:40:06;3.33;;;1.30;;
24008;SDS011;12217;50.792;4.372;2024-03-02T03:42:35;6.25;;;1.50;;
24008;SDS011;12217;50.792;4.372;2024-03-02T03:45:01;3.63;;;1.33;;
24008;SDS011;12217;50.792;4.372;2024-03-02T03:47:27;4.75;;;1.52;;
24008;SDS011;12217;50.792;4.372;2024-03-02T03:49:52;3.15;;;1.20;;
24008;SDS011;12217;50.792;4.372;2024-03-02T03:52:18;3.72;;;1.33;;
24008;SDS011;12217;50.792;4.372;2024-03-02T03:54:43;3.40;;;1.17;;
24008;SDS011;12217;50.792;4.372;2024-03-02T03:57:09;5.68;;;1.40;;
24008;SDS011;12217;50.792;4.372;2024-03-02T03:59:35;3.80;;;1.10;;
24008;SDS011;12217;50.792;4.372;2024-03-02T04:02:02;6.30;;;1.65;;
24008;SDS011;12217;50.792;4.372;2024-03-02T04:04:28;2.47;;;1.20;;
24008;SDS011;12217;50.792;4.372;2024-03-02T04:06:54;3.53;;;1.55;;
24008;SDS011;12217;50.792;4.372;2024-03-02T04:09:19;5.03;;;1.20;;
24008;SDS011;12217;50.792;4.372;2024-03-02T04:11:45;3.90;;;1.20;;
24008;SDS011;12217;50.792;4.372;2024-03-02T04:14:11;2.58;;;1.20;;
24008;SDS011;12217;50.792;4.372;2024-03-02T04:16:37;2.03;;;1.30;;
24008;SDS011;12217;50.792;4.372;2024-03-02T04:19:04;4.60;;;1.30;;
24008;SDS011;12217;50.792;4.372;2024-03-02T04:21:30;2.65;;;1.20;;
24008;SDS011;12217;50.792;4.372;2024-03-02T04:23:55;5.10;;;1.65;;
24008;SDS011;12217;50.792;4.372;2024-03-02T04:26:23;3.00;;;1.60;;
24008;SDS011;12217;50.792;4.372;2024-03-02T04:28:50;7.30;;;1.40;;
24008;SDS011;12217;50.792;4.372;2024-03-02T04:31:16;3.67;;;1.30;;
24008;SDS011;12217;50.792;4.372;2024-03-02T04:33:42;5.75;;;1.40;;
24008;SDS011;12217;50.792;4.372;2024-03-02T04:36:08;3.80;;;1.13;;
24008;SDS011;12217;50.792;4.372;2024-03-02T04:38:34;3.53;;;1.45;;
24008;SDS011;12217;50.792;4.372;2024-03-02T04:41:00;1.33;;;1.20;;
24008;SDS011;12217;50.792;4.372;2024-03-02T04:43:26;4.47;;;1.20;;
24008;SDS011;12217;50.792;4.372;2024-03-02T04:45:52;3.25;;;1.20;;
24008;SDS011;12217;50.792;4.372;2024-03-02T04:48:17;7.50;;;1.40;;
24008;SDS011;12217;50.792;4.372;2024-03-02T04:50:44;5.32;;;1.30;;
24008;SDS011;12217;50.792;4.372;2024-03-02T04:53:10;5.80;;;1.42;;
24008;SDS011;12217;50.792;4.372;2024-03-02T04:55:35;4.60;;;1.40;;
24008;SDS011;12217;50.792;4.372;2024-03-02T04:58:04;4.25;;;1.35;;
24008;SDS011;12217;50.792;4.372;2024-03-02T05:00:30;4.28;;;1.40;;
24008;SDS011;12217;50.792;4.372;2024-03-02T05:02:55;3.83;;;1.33;;
24008;SDS011;12217;50.792;4.372;2024-03-02T05:05:21;4.85;;;1.55;;
24008;SDS011;12217;50.792;4.372;2024-03-02T05:07:47;3.58;;;1.48;;
24008;SDS011;12217;50.792;4.372;2024-03-02T05:10:12;5.55;;;1.60;;
24008;SDS011;12217;50.792;4.372;2024-03-02T05:12:38;4.80;;;1.40;;
24008;SDS011;12217;50.792;4.372;2024-03-02T05:15:10;5.35;;;1.60;;
24008;SDS011;12217;50.792;4.372;2024-03-02T05:17:37;3.38;;;1.20;;
24008;SDS011;12217;50.792;4.372;2024-03-02T05:20:04;5.50;;;1.38;;
24008;SDS011;12217;50.792;4.372;2024-03-02T05:22:33;5.00;;;1.60;;
24008;SDS011;12217;50.792;4.372;2024-03-02T05:24:59;5.55;;;1.30;;
24008;SDS011;12217;50.792;4.372;2024-03-02T05:27:26;5.80;;;1.75;;
24008;SDS011;12217;50.792;4.372;2024-03-02T05:29:52;4.15;;;1.27;;
24008;SDS011;12217;50.792;4.372;2024-03-02T05:32:18;3.83;;;1.33;;
24008;SDS011;12217;50.792;4.372;2024-03-02T05:34:43;5.63;;;1.52;;
24008;SDS011;12217;50.792;4.372;2024-03-02T05:37:09;3.47;;;1.70;;
24008;SDS011;12217;50.792;4.372;2024-03-02T05:39:34;4.60;;;1.42;;
24008;SDS011;12217;50.792;4.372;2024-03-02T05:42:00;4.95;;;1.27;;
24008;SDS011;12217;50.792;4.372;2024-03-02T05:44:26;6.57;;;1.50;;
24008;SDS011;12217;50.792;4.372;2024-03-02T05:46:51;3.40;;;1.30;;
24008;SDS011;12217;50.792;4.372;2024-03-02T05:49:17;6.10;;;1.30;;
24008;SDS011;12217;50.792;4.372;2024-03-02T05:51:43;3.88;;;1.38;;
24008;SDS011;12217;50.792;4.372;2024-03-02T05:54:08;3.30;;;1.27;;
24008;SDS011;12217;50.792;4.372;2024-03-02T05:56:34;4.90;;;1.48;;
24008;SDS011;12217;50.792;4.372;2024-03-02T05:59:00;5.38;;;1.70;;
24008;SDS011;12217;50.792;4.372;2024-03-02T06:01:38;5.40;;;1.40;;
24008;SDS011;12217;50.792;4.372;2024-03-02T06:04:08;4.28;;;1.30;;
24008;SDS011;12217;50.792;4.372;2024-03-02T06:06:34;9.90;;;1.67;;
24008;SDS011;12217;50.792;4.372;2024-03-02T06:09:03;5.47;;;1.50;;
24008;SDS011;12217;50.792;4.372;2024-03-02T06:11:36;7.25;;;1.55;;
24008;SDS011;12217;50.792;4.372;2024-03-02T06:14:02;4.70;;;1.58;;
24008;SDS011;12217;50.792;4.372;2024-03-02T06:16:32;4.65;;;1.48;;
24008;SDS011;12217;50.792;4.372;2024-03-02T06:18:58;5.72;;;1.23;;
24008;SDS011;12217;50.792;4.372;2024-03-02T06:21:24;5.60;;;1.83;;
24008;SDS011;12217;50.792;4.372;2024-03-02T06:23:50;4.50;;;1.40;;
24008;SDS011;12217;50.792;4.372;2024-03-02T06:26:16;6.65;;;1.50;;
24008;SDS011;12217;50.792;4.372;2024-03-02T06:28:42;7.75;;;1.40;;
24008;SDS011;12217;50.792;4.372;2024-03-02T06:31:08;7.50;;;1.65;;
24008;SDS011;12217;50.792;4.372;2024-03-02T06:33:34;8.77;;;1.88;;
24008;SDS011;12217;50.792;4.372;2024-03-02T06:35:59;7.15;;;1.80;;
24008;SDS011;12217;50.792;4.372;2024-03-02T06:38:25;6.15;;;1.90;;
24008;SDS011;12217;50.792;4.372;2024-03-02T06:40:51;8.73;;;1.88;;
24008;SDS011;12217;50.792;4.372;2024-03-02T06:43:16;5.78;;;1.92;;
24008;SDS011;12217;50.792;4.372;2024-03-02T06:45:42;7.03;;;2.42;;
24008;SDS011;12217;50.792;4.372;2024-03-02T06:48:07;6.43;;;1.83;;
24008;SDS011;12217;50.792;4.372;2024-03-02T06:50:33;8.77;;;2.25;;
24008;SDS011;12217;50.792;4.372;2024-03-02T06:52:58;7.88;;;2.10;;
24008;SDS011;12217;50.792;4.372;2024-03-02T06:55:24;10.15;;;2.10;;
24008;SDS011;12217;50.792;4.372;2024-03-02T06:57:50;10.65;;;1.60;;
24008;SDS011;12217;50.792;4.372;2024-03-02T07:00:17;4.47;;;1.38;;
24008;SDS011;12217;50.792;4.372;2024-03-02T07:02:43;5.20;;;1.67;;
24008;SDS011;12217;50.792;4.372;2024-03-02T07:05:09;5.22;;;1.50;;
24008;SDS011;12217;50.792;4.372;2024-03-02T07:07:35;7.80;;;1.42;;
24008;SDS011;12217;50.792;4.372;2024-03-02T07:10:01;8.23;;;1.83;;
24008;SDS011;12217;50.792;4.372;2024-03-02T07:12:28;8.95;;;1.65;;
24008;SDS011;12217;50.792;4.372;2024-03-02T07:14:53;5.70;;;1.90;;
24008;SDS011;12217;50.792;4.372;2024-03-02T07:17:36;9.23;;;2.05;;
24008;SDS011;12217;50.792;4.372;2024-03-02T07:20:02;5.80;;;1.50;;
24008;SDS011;12217;50.792;4.372;2024-03-02T07:22:28;9.82;;;1.92;;
24008;SDS011;12217;50.792;4.372;2024-03-02T07:24:54;10.45;;;2.17;;
24008;SDS011;12217;50.792;4.372;2024-03-02T07:27:20;7.47;;;1.83;;
24008;SDS011;12217;50.792;4.372;2024-03-02T07:29:46;6.32;;;1.55;;
24008;SDS011;12217;50.792;4.372;2024-03-02T07:32:12;8.23;;;1.98;;
24008;SDS011;12217;50.792;4.372;2024-03-02T07:34:38;4.03;;;1.48;;
24008;SDS011;12217;50.792;4.372;2024-03-02T07:37:03;6.45;;;1.98;;
24008;SDS011;12217;50.792;4.372;2024-03-02T07:39:29;9.52;;;1.90;;
24008;SDS011;12217;50.792;4.372;2024-03-02T07:41:55;6.90;;;1.90;;
24008;SDS011;12217;50.792;4.372;2024-03-02T07:44:21;5.72;;;1.58;;
24008;SDS011;12217;50.792;4.372;2024-03-02T07:46:47;7.47;;;1.80;;
24008;SDS011;12217;50.792;4.372;2024-03-02T07:49:15;7.55;;;1.50;;
24008;SDS011;12217;50.792;4.372;2024-03-02T07:51:41;9.30;;;2.00;;
24008;SDS011;12217;50.792;4.372;2024-03-02T07:54:07;8.82;;;1.95;;
24008;SDS011;12217;50.792;4.372;2024-03-02T07:56:33;9.43;;;1.83;;
24008;SDS011;12217;50.792;4.372;2024-03-02T07:58:58;9.15;;;1.80;;
24008;SDS011;12217;50.792;4.372;2024-03-02T08:01:29;9.32;;;1.88;;
24008;SDS011;12217;50.792;4.372;2024-03-02T08:03:57;8.27;;;1.83;;
24008;SDS011;12217;50.792;4.372;2024-03-02T08:06:24;6.10;;;1.77;;
24008;SDS011;12217;50.792;4.372;2024-03-02T08:08:52;11.70;;;2.20;;
24008;SDS011;12217;50.792;4.372;2024-03-02T08:11:19;7.60;;;1.70;;
24008;SDS011;12217;50.792;4.372;2024-03-02T08:13:45;7.25;;;1.98;;
24008;SDS011;12217;50.792;4.372;2024-03-02T08:16:11;8.90;;;2.30;;
24008;SDS011;12217;50.792;4.372;2024-03-02T08:18:36;8.25;;;1.92;;
24008;SDS011;12217;50.792;4.372;2024-03-02T08:21:02;9.23;;;2.20;;
24008;SDS011;12217;50.792;4.372;2024-03-02T08:23:28;6.32;;;1.90;;
24008;SDS011;12217;50.792;4.372;2024-03-02T08:25:54;7.97;;;1.90;;
24008;SDS011;12217;50.792;4.372;2024-03-02T08:28:19;5.57;;;1.75;;
24008;SDS011;12217;50.792;4.372;2024-03-02T08:30:45;7.25;;;2.00;;
24008;SDS011;12217;50.792;4.372;2024-03-02T08:33:10;6.55;;;1.83;;
24008;SDS011;12217;50.792;4.372;2024-03-02T08:35:36;6.50;;;2.03;;
24008;SDS011;12217;50.792;4.372;2024-03-02T08:38:02;8.32;;;2.35;;
24008;SDS011;12217;50.792;4.372;2024-03-02T08:40:28;6.28;;;1.70;;
24008;SDS011;12217;50.792;4.372;2024-03-02T08:42:54;6.63;;;1.80;;
24008;SDS011;12217;50.792;4.372;2024-03-02T08:45:19;6.47;;;2.05;;
24008;SDS011;12217;50.792;4.372;2024-03-02T08:47:45;8.82;;;1.63;;
24008;SDS011;12217;50.792;4.372;2024-03-02T08:50:12;9.02;;;1.80;;
24008;SDS011;12217;50.792;4.372;2024-03-02T08:52:37;7.32;;;2.10;;
24008;SDS011;12217;50.792;4.372;2024-03-02T08:55:03;9.52;;;1.65;;
24008;SDS011;12217;50.792;4.372;2024-03-02T08:57:29;6.22;;;1.90;;
24008;SDS011;12217;50.792;4.372;2024-03-02T08:59:56;6.10;;;1.80;;
24008;SDS011;12217;50.792;4.372;2024-03-02T09:02:22;6.47;;;1.63;;
24008;SDS011;12217;50.792;4.372;2024-03-02T09:04:48;9.10;;;2.10;;
24008;SDS011;12217;50.792;4.372;2024-03-02T09:07:14;9.45;;;1.77;;
24008;SDS011;12217;50.792;4.372;2024-03-02T09:09:40;7.63;;;2.33;;
24008;SDS011;12217;50.792;4.372;2024-03-02T09:12:06;6.80;;;1.42;;
24008;SDS011;12217;50.792;4.372;2024-03-02T09:14:32;9.55;;;2.00;;
24008;SDS011;12217;50.792;4.372;2024-03-02T09:16:58;5.28;;;1.48;;
24008;SDS011;12217;50.792;4.372;2024-03-02T09:19:23;7.70;;;1.50;;
24008;SDS011;12217;50.792;4.372;2024-03-02T09:21:49;8.02;;;1.92;;
24008;SDS011;12217;50.792;4.372;2024-03-02T09:24:15;5.53;;;1.70;;
24008;SDS011;12217;50.792;4.372;2024-03-02T09:26:41;11.68;;;1.65;;
24008;SDS011;12217;50.792;4.372;2024-03-02T09:29:06;11.63;;;2.35;;
24008;SDS011;12217;50.792;4.372;2024-03-02T09:31:32;4.10;;;1.50;;
24008;SDS011;12217;50.792;4.372;2024-03-02T09:33:57;10.82;;;2.03;;
24008;SDS011;12217;50.792;4.372;2024-03-02T09:36:23;7.50;;;1.48;;
24008;SDS011;12217;50.792;4.372;2024-03-02T09:38:49;9.60;;;1.67;;
24008;SDS011;12217;50.792;4.372;2024-03-02T09:41:15;6.32;;;1.67;;
24008;SDS011;12217;50.792;4.372;2024-03-02T09:43:40;7.07;;;1.40;;
24008;SDS011;12217;50.792;4.372;2024-03-02T09:46:09;7.45;;;1.60;;
24008;SDS011;12217;50.792;4.372;2024-03-02T09:48:35;6.85;;;1.60;;
24008;SDS011;12217;50.792;4.372;2024-03-02T09:51:01;8.00;;;1.55;;
24008;SDS011;12217;50.792;4.372;2024-03-02T09:53:31;10.05;;;1.60;;
24008;SDS011;12217;50.792;4.372;2024-03-02T09:55:59;6.75;;;1.40;;
24008;SDS011;12217;50.792;4.372;2024-03-02T09:58:25;9.63;;;1.48;;
24008;SDS011;12217;50.792;4.372;2024-03-02T10:00:51;6.40;;;1.30;;
24008;SDS011;12217;50.792;4.372;2024-03-02T10:03:18;8.55;;;1.55;;
24008;SDS011;12217;50.792;4.372;2024-03-02T10:05:44;10.05;;;1.60;;
24008;SDS011;12217;50.792;4.372;2024-03-02T10:08:10;8.63;;;1.95;;
24008;SDS011;12217;50.792;4.372;2024-03-02T10:10:36;8.20;;;1.98;;
24008;SDS011;12217;50.792;4.372;2024-03-02T10:13:13;8.00;;;1.52;;
24008;SDS011;12217;50.792;4.372;2024-03-02T10:15:39;10.88;;;1.90;;
24008;SDS011;12217;50.792;4.372;2024-03-02T10:18:09;7.38;;;1.63;;
24008;SDS011;12217;50.792;4.372;2024-03-02T10:20:39;3.90;;;1.17;;
24008;SDS011;12217;50.792;4.372;2024-03-02T10:23:12;8.75;;;1.45;;
24008;SDS011;12217;50.792;4.372;2024-03-02T10:25:39;6.18;;;1.63;;
24008;SDS011;12217;50.792;4.372;2024-03-02T10:28:05;4.63;;;1.48;;
24008;SDS011;12217;50.792;4.372;2024-03-02T10:30:32;5.30;;;1.30;;
24008;SDS011;12217;50.792;4.372;2024-03-02T10:32:58;8.48;;;1.30;;
24008;SDS011;12217;50.792;4.372;2024-03-02T10:35:24;9.32;;;1.83;;
24008;SDS011;12217;50.792;4.372;2024-03-02T10:37:54;6.63;;;1.52;;
24008;SDS011;12217;50.792;4.372;2024-03-02T10:40:23;4.43;;;1.75;;
24008;SDS011;12217;50.792;4.372;2024-03-02T10:42:52;7.13;;;1.67;;
24008;SDS011;12217;50.792;4.372;2024-03-02T10:45:17;8.82;;;1.63;;
24008;SDS011;12217;50.792;4.372;2024-03-02T10:47:45;7.35;;;1.60;;
24008;SDS011;12217;50.792;4.372;2024-03-02T10:50:12;7.10;;;1.33;;
24008;SDS011;12217;50.792;4.372;2024-03-02T10:52:38;4.90;;;1.60;;
24008;SDS011;12217;50.792;4.372;2024-03-02T10:55:07;7.43;;;1.35;;
24008;SDS011;12217;50.792;4.372;2024-03-02T10:57:53;6.68;;;1.52;;
24008;SDS011;12217;50.792;4.372;2024-03-02T11:00:20;4.85;;;1.40;;
24008;SDS011;12217;50.792;4.372;2024-03-02T11:02:52;13.07;;;2.28;;
24008;SDS011;12217;50.792;4.372;2024-03-02T11:05:43;5.45;;;1.30;;
24008;SDS011;12217;50.792;4.372;2024-03-02T11:08:12;7.63;;;1.40;;
24008;SDS011;12217;50.792;4.372;2024-03-02T11:10:48;7.07;;;1.77;;
24008;SDS011;12217;50.792;4.372;2024-03-02T11:13:22;7.82;;;1.90;;
24008;SDS011;12217;50.792;4.372;2024-03-02T11:15:52;8.40;;;1.70;;
24008;SDS011;12217;50.792;4.372;2024-03-02T11:18:24;6.75;;;1.60;;
24008;SDS011;12217;50.792;4.372;2024-03-02T11:20:50;5.68;;;1.42;;
24008;SDS011;12217;50.792;4.372;2024-03-02T11:23:16;5.15;;;1.60;;
24008;SDS011;12217;50.792;4.372;2024-03-02T11:25:42;5.13;;;1.35;;
24008;SDS011;12217;50.792;4.372;2024-03-02T11:28:07;5.63;;;1.65;;
24008;SDS011;12217;50.792;4.372;2024-03-02T11:33:07;8.32;;;1.67;;
24008;SDS011;12217;50.792;4.372;2024-03-02T11:35:34;7.50;;;1.45;;
24008;SDS011;12217;50.792;4.372;2024-03-02T11:38:06;8.10;;;1.65;;
24008;SDS011;12217;50.792;4.372;2024-03-02T11:40:32;9.52;;;1.33;;
24008;SDS011;12217;50.792;4.372;2024-03-02T11:43:00;5.95;;;1.60;;
24008;SDS011;12217;50.792;4.372;2024-03-02T11:45:26;6.93;;;1.65;;
24008;SDS011;12217;50.792;4.372;2024-03-02T11:47:57;9.35;;;1.60;;
24008;SDS011;12217;50.792;4.372;2024-03-02T11:53:02;5.63;;;1.13;;
24008;SDS011;12217;50.792;4.372;2024-03-02T11:55:36;7.43;;;1.40;;
24008;SDS011;12217;50.792;4.372;2024-03-02T11:58:03;7.75;;;1.27;;
24008;SDS011;12217;50.792;4.372;2024-03-02T12:00:29;6.13;;;1.30;;
24008;SDS011;12217;50.792;4.372;2024-03-02T12:03:01;7.53;;;1.42;;
24008;SDS011;12217;50.792;4.372;2024-03-02T12:05:28;3.75;;;1.38;;
24008;SDS011;12217;50.792;4.372;2024-03-02T12:07:58;7.00;;;1.50;;
24008;SDS011;12217;50.792;4.372;2024-03-02T12:10:25;11.30;;;2.25;;
24008;SDS011;12217;50.792;4.372;2024-03-02T12:13:01;7.80;;;1.40;;
24008;SDS011;12217;50.792;4.372;2024-03-02T12:15:36;5.88;;;1.50;;
24008;SDS011;12217;50.792;4.372;2024-03-02T12:18:03;6.13;;;1.90;;
24008;SDS011;12217;50.792;4.372;2024-03-02T12:20:31;5.85;;;1.42;;
24008;SDS011;12217;50.792;4.372;2024-03-02T12:22:58;7.97;;;1.67;;
24008;SDS011;12217;50.792;4.372;2024-03-02T12:25:25;3.50;;;1.25;;
24008;SDS011;12217;50.792;4.372;2024-03-02T12:27:53;4.05;;;1.30;;
24008;SDS011;12217;50.792;4.372;2024-03-02T12:30:20;7.22;;;1.27;;
24008;SDS011;12217;50.792;4.372;2024-03-02T12:32:46;6.35;;;1.38;;
24008;SDS011;12217;50.792;4.372;2024-03-02T12:35:12;4.03;;;0.90;;
24008;SDS011;12217;50.792;4.372;2024-03-02T12:37:42;7.07;;;1.50;;
24008;SDS011;12217;50.792;4.372;2024-03-02T12:40:12;6.55;;;1.40;;
24008;SDS011;12217;50.792;4.372;2024-03-02T12:42:38;4.88;;;1.75;;
24008;SDS011;12217;50.792;4.372;2024-03-02T12:45:05;4.30;;;1.10;;
24008;SDS011;12217;50.792;4.372;2024-03-02T12:47:32;3.70;;;1.20;;
24008;SDS011;12217;50.792;4.372;2024-03-02T12:49:59;4.47;;;0.93;;
24008;SDS011;12217;50.792;4.372;2024-03-02T12:52:24;4.30;;;1.50;;
24008;SDS011;12217;50.792;4.372;2024-03-02T12:54:50;4.38;;;1.00;;
24008;SDS011;12217;50.792;4.372;2024-03-02T12:57:17;4.68;;;1.40;;
24008;SDS011;12217;50.792;4.372;2024-03-02T12:59:46;4.28;;;1.10;;
24008;SDS011;12217;50.792;4.372;2024-03-02T13:02:19;4.57;;;1.00;;
24008;SDS011;12217;50.792;4.372;2024-03-02T13:04:51;3.40;;;0.98;;
24008;SDS011;12217;50.792;4.372;2024-03-02T13:07:19;4.18;;;1.17;;
24008;SDS011;12217;50.792;4.372;2024-03-02T13:09:45;3.70;;;1.00;;
24008;SDS011;12217;50.792;4.372;2024-03-02T13:12:11;6.70;;;1.38;;
24008;SDS011;12217;50.792;4.372;2024-03-02T13:14:37;3.50;;;1.15;;
24008;SDS011;12217;50.792;4.372;2024-03-02T13:17:02;5.05;;;1.02;;
24008;SDS011;12217;50.792;4.372;2024-03-02T13:19:30;2.63;;;0.93;;
24008;SDS011;12217;50.792;4.372;2024-03-02T13:21:56;4.18;;;1.10;;
24008;SDS011;12217;50.792;4.372;2024-03-02T13:24:23;4.07;;;1.00;;
24008;SDS011;12217;50.792;4.372;2024-03-02T13:26:53;4.38;;;0.90;;
24008;SDS011;12217;50.792;4.372;2024-03-02T13:29:21;3.58;;;0.90;;
24008;SDS011;12217;50.792;4.372;2024-03-02T13:31:46;4.50;;;1.00;;
24008;SDS011;12217;50.792;4.372;2024-03-02T13:34:12;6.80;;;1.20;;
24008;SDS011;12217;50.792;4.372;2024-03-02T13:36:38;2.72;;;1.00;;
24008;SDS011;12217;50.792;4.372;2024-03-02T13:39:03;2.58;;;1.02;;
24008;SDS011;12217;50.792;4.372;2024-03-02T13:41:35;4.97;;;1.20;;
24008;SDS011;12217;50.792;4.372;2024-03-02T13:44:01;2.10;;;0.98;;
24008;SDS011;12217;50.792;4.372;2024-03-02T13:46:27;2.00;;;1.00;;
24008;SDS011;12217;50.792;4.372;2024-03-02T13:48:53;3.92;;;1.17;;
24008;SDS011;12217;50.792;4.372;2024-03-02T13:51:19;2.03;;;0.93;;
24008;SDS011;12217;50.792;4.372;2024-03-02T13:53:45;5.07;;;1.23;;
24008;SDS011;12217;50.792;4.372;2024-03-02T13:56:11;3.17;;;1.20;;
24008;SDS011;12217;50.792;4.372;2024-03-02T13:58:36;5.28;;;1.20;;
24008;SDS011;12217;50.792;4.372;2024-03-02T14:01:02;6.15;;;1.20;;
24008;SDS011;12217;50.792;4.372;2024-03-02T14:03:29;3.78;;;1.33;;
24008;SDS011;12217;50.792;4.372;2024-03-02T14:05:55;2.75;;;1.08;;
24008;SDS011;12217;50.792;4.372;2024-03-02T14:08:21;2.10;;;0.93;;
24008;SDS011;12217;50.792;4.372;2024-03-02T14:10:46;2.10;;;1.13;;
24008;SDS011;12217;50.792;4.372;2024-03-02T14:13:12;4.60;;;1.20;;
24008;SDS011;12217;50.792;4.372;2024-03-02T14:15:37;9.07;;;5.97;;
24008;SDS011;12217;50.792;4.372;2024-03-02T14:18:04;1.90;;;1.20;;
24008;SDS011;12217;50.792;4.372;2024-03-02T14:20:31;5.38;;;3.60;;
24008;SDS011;12217;50.792;4.372;2024-03-02T14:22:57;3.15;;;1.92;;
24008;SDS011;12217;50.792;4.372;2024-03-02T14:25:24;3.78;;;2.42;;
24008;SDS011;12217;50.792;4.372;2024-03-02T14:27:50;9.68;;;6.30;;
24008;SDS011;12217;50.792;4.372;2024-03-02T14:30:16;3.63;;;2.22;;
24008;SDS011;12217;50.792;4.372;2024-03-02T14:32:41;14.80;;;11.82;;
24008;SDS011;12217;50.792;4.372;2024-03-02T14:35:07;2.95;;;1.30;;
24008;SDS011;12217;50.792;4.372;2024-03-02T14:37:35;2.45;;;1.20;;
24008;SDS011;12217;50.792;4.372;2024-03-02T14:40:01;4.90;;;1.13;;
24008;SDS011;12217;50.792;4.372;2024-03-02T14:42:31;17.70;;;11.85;;
24008;SDS011;12217;50.792;4.372;2024-03-02T14:44:57;14.90;;;7.72;;
24008;SDS011;12217;50.792;4.372;2024-03-02T14:47:22;6.07;;;2.67;;
24008;SDS011;12217;50.792;4.372;2024-03-02T14:49:49;13.45;;;8.90;;
24008;SDS011;12217;50.792;4.372;2024-03-02T14:52:15;9.27;;;5.15;;
24008;SDS011;12217;50.792;4.372;2024-03-02T14:54:43;14.48;;;8.23;;
24008;SDS011;12217;50.792;4.372;2024-03-02T14:57:09;5.30;;;1.98;;